sensor_id;sensor_type;location;lat;lon;timestamp;P1;durP1;ratioP1;P2;durP2;ratioP2
14342;SDS011;7255;53.596;9.960;2023-05-16T00:00:30;4.55;;;4.15;;
14342;SDS011;7255;53.596;9.960;2023-05-16T00:02:59;4.78;;;4.12;;
14342;SDS011;7255;53.596;9.960;2023-05-16T00:05:26;4.78;;;3.87;;
14342;SDS011;7255;53.596;9.960;2023-05-16T00:07:53;4.80;;;3.67;;
14342;SDS011;7255;53.596;9.960;2023-05-16T00:10:21;3.85;;;3.30;;
14342;SDS011;7255;53.596;9.960;2023-05-16T00:12:47;3.60;;;3.30;;
14342;SDS011;7255;53.596;9.960;2023-05-16T00:15:15;3.33;;;3.03;;
14342;SDS011;7255;53.596;9.960;2023-05-16T00:17:44;4.60;;;2.90;;
14342;SDS011;7255;53.596;9.960;2023-05-16T00:20:11;3.65;;;2.72;;
14342;SDS011;7255;53.596;9.960;2023-05-16T00:22:38;3.75;;;2.45;;
14342;SDS011;7255;53.596;9.960;2023-05-16T00:25:04;3.12;;;2.55;;
14342;SDS011;7255;53.596;9.960;2023-05-16T00:27:34;3.03;;;2.47;;
14342;SDS011;7255;53.596;9.960;2023-05-16T00:30:01;2.87;;;2.58;;
14342;SDS011;7255;53.596;9.960;2023-05-16T00:32:27;3.28;;;2.28;;
14342;SDS011;7255;53.596;9.960;2023-05-16T00:34:53;2.70;;;2.50;;
14342;SDS011;7255;53.596;9.960;2023-05-16T00:37:20;3.15;;;2.58;;
14342;SDS011;7255;53.596;9.960;2023-05-16T00:39:46;3.35;;;2.28;;
14342;SDS011;7255;53.596;9.960;2023-05-16T00:42:13;3.12;;;2.30;;
14342;SDS011;7255;53.596;9.960;2023-05-16T00:44:40;2.65;;;2.45;;
14342;SDS011;7255;53.596;9.960;2023-05-16T00:47:07;3.70;;;2.37;;
14342;SDS011;7255;53.596;9.960;2023-05-16T00:49:33;3.15;;;2.10;;
14342;SDS011;7255;53.596;9.960;2023-05-16T00:51:59;2.97;;;2.03;;
14342;SDS011;7255;53.596;9.960;2023-05-16T00:54:26;2.53;;;2.20;;
14342;SDS011;7255;53.596;9.960;2023-05-16T00:56:53;3.00;;;2.47;;
14342;SDS011;7255;53.596;9.960;2023-05-16T00:59:20;2.28;;;2.05;;
14342;SDS011;7255;53.596;9.960;2023-05-16T01:01:48;3.12;;;2.15;;
14342;SDS011;7255;53.596;9.960;2023-05-16T01:04:16;2.45;;;1.70;;
14342;SDS011;7255;53.596;9.960;2023-05-16T01:06:42;2.50;;;2.10;;
14342;SDS011;7255;53.596;9.960;2023-05-16T01:09:10;3.00;;;1.85;;
14342;SDS011;7255;53.596;9.960;2023-05-16T01:11:39;3.58;;;2.03;;
14342;SDS011;7255;53.596;9.960;2023-05-16T01:14:14;3.22;;;2.12;;
14342;SDS011;7255;53.596;9.960;2023-05-16T01:16:45;2.83;;;2.07;;
14342;SDS011;7255;53.596;9.960;2023-05-16T01:19:20;2.22;;;1.80;;
14342;SDS011;7255;53.596;9.960;2023-05-16T01:21:59;3.12;;;2.00;;
14342;SDS011;7255;53.596;9.960;2023-05-16T01:24:31;3.50;;;2.20;;
14342;SDS011;7255;53.596;9.960;2023-05-16T01:27:00;2.50;;;2.00;;
14342;SDS011;7255;53.596;9.960;2023-05-16T01:29:30;2.30;;;2.10;;
14342;SDS011;7255;53.596;9.960;2023-05-16T01:31:56;2.12;;;1.92;;
14342;SDS011;7255;53.596;9.960;2023-05-16T01:34:23;3.73;;;2.20;;
14342;SDS011;7255;53.596;9.960;2023-05-16T01:36:51;3.83;;;2.03;;
14342;SDS011;7255;53.596;9.960;2023-05-16T01:39:26;4.30;;;2.53;;
14342;SDS011;7255;53.596;9.960;2023-05-16T01:42:00;3.12;;;2.12;;
14342;SDS011;7255;53.596;9.960;2023-05-16T01:44:30;3.85;;;2.50;;
14342;SDS011;7255;53.596;9.960;2023-05-16T01:47:00;6.85;;;2.65;;
14342;SDS011;7255;53.596;9.960;2023-05-16T01:49:30;2.72;;;2.10;;
14342;SDS011;7255;53.596;9.960;2023-05-16T01:52:01;4.50;;;2.28;;
14342;SDS011;7255;53.596;9.960;2023-05-16T01:54:32;5.28;;;2.12;;
14342;SDS011;7255;53.596;9.960;2023-05-16T01:57:04;4.57;;;2.45;;
14342;SDS011;7255;53.596;9.960;2023-05-16T01:59:32;3.80;;;2.60;;
14342;SDS011;7255;53.596;9.960;2023-05-16T02:01:59;4.65;;;2.35;;
14342;SDS011;7255;53.596;9.960;2023-05-16T02:04:26;3.15;;;2.12;;
14342;SDS011;7255;53.596;9.960;2023-05-16T02:06:52;4.20;;;2.33;;
14342;SDS011;7255;53.596;9.960;2023-05-16T02:09:19;3.67;;;1.90;;
14342;SDS011;7255;53.596;9.960;2023-05-16T02:11:45;6.55;;;2.10;;
14342;SDS011;7255;53.596;9.960;2023-05-16T02:14:13;3.03;;;1.70;;
14342;SDS011;7255;53.596;9.960;2023-05-16T02:16:40;3.45;;;1.80;;
14342;SDS011;7255;53.596;9.960;2023-05-16T02:19:06;6.45;;;2.00;;
14342;SDS011;7255;53.596;9.960;2023-05-16T02:21:33;3.45;;;1.70;;
14342;SDS011;7255;53.596;9.960;2023-05-16T02:23:59;4.25;;;1.62;;
14342;SDS011;7255;53.596;9.960;2023-05-16T02:26:26;3.53;;;1.67;;
14342;SDS011;7255;53.596;9.960;2023-05-16T02:28:52;5.75;;;2.08;;
14342;SDS011;7255;53.596;9.960;2023-05-16T02:31:26;4.00;;;1.70;;
14342;SDS011;7255;53.596;9.960;2023-05-16T02:33:53;6.03;;;1.80;;
14342;SDS011;7255;53.596;9.960;2023-05-16T02:36:19;5.00;;;2.00;;
14342;SDS011;7255;53.596;9.960;2023-05-16T02:38:46;4.82;;;1.90;;
14342;SDS011;7255;53.596;9.960;2023-05-16T02:41:12;5.93;;;1.90;;
14342;SDS011;7255;53.596;9.960;2023-05-16T02:43:38;3.05;;;1.80;;
14342;SDS011;7255;53.596;9.960;2023-05-16T02:46:18;3.93;;;1.73;;
14342;SDS011;7255;53.596;9.960;2023-05-16T02:48:46;5.30;;;1.85;;
14342;SDS011;7255;53.596;9.960;2023-05-16T02:51:13;4.93;;;2.00;;
14342;SDS011;7255;53.596;9.960;2023-05-16T02:53:39;4.55;;;1.85;;
14342;SDS011;7255;53.596;9.960;2023-05-16T02:56:05;5.60;;;1.85;;
14342;SDS011;7255;53.596;9.960;2023-05-16T02:58:32;5.07;;;1.77;;
14342;SDS011;7255;53.596;9.960;2023-05-16T03:00:58;4.93;;;2.15;;
14342;SDS011;7255;53.596;9.960;2023-05-16T03:03:24;4.07;;;1.90;;
14342;SDS011;7255;53.596;9.960;2023-05-16T03:05:52;7.93;;;2.50;;
14342;SDS011;7255;53.596;9.960;2023-05-16T03:08:18;5.55;;;2.00;;
14342;SDS011;7255;53.596;9.960;2023-05-16T03:10:45;6.93;;;2.62;;
14342;SDS011;7255;53.596;9.960;2023-05-16T03:13:11;6.35;;;2.20;;
14342;SDS011;7255;53.596;9.960;2023-05-16T03:15:37;4.93;;;1.70;;
14342;SDS011;7255;53.596;9.960;2023-05-16T03:18:04;4.90;;;2.00;;
14342;SDS011;7255;53.596;9.960;2023-05-16T03:20:30;8.82;;;2.30;;
14342;SDS011;7255;53.596;9.960;2023-05-16T03:22:58;8.13;;;2.08;;
14342;SDS011;7255;53.596;9.960;2023-05-16T03:25:24;6.07;;;1.80;;
14342;SDS011;7255;53.596;9.960;2023-05-16T03:27:50;5.37;;;1.73;;
14342;SDS011;7255;53.596;9.960;2023-05-16T03:30:17;8.40;;;1.95;;
14342;SDS011;7255;53.596;9.960;2023-05-16T03:32:44;6.25;;;2.25;;
14342;SDS011;7255;53.596;9.960;2023-05-16T03:35:11;6.10;;;1.98;;
14342;SDS011;7255;53.596;9.960;2023-05-16T03:37:37;4.90;;;2.10;;
14342;SDS011;7255;53.596;9.960;2023-05-16T03:40:06;6.90;;;2.20;;
14342;SDS011;7255;53.596;9.960;2023-05-16T03:42:33;5.78;;;1.90;;
14342;SDS011;7255;53.596;9.960;2023-05-16T03:45:00;6.20;;;1.75;;
14342;SDS011;7255;53.596;9.960;2023-05-16T03:47:26;4.47;;;1.60;;
14342;SDS011;7255;53.596;9.960;2023-05-16T03:49:55;7.10;;;2.10;;
14342;SDS011;7255;53.596;9.960;2023-05-16T03:52:21;4.97;;;1.95;;
14342;SDS011;7255;53.596;9.960;2023-05-16T03:54:48;7.10;;;2.08;;
14342;SDS011;7255;53.596;9.960;2023-05-16T03:57:15;9.80;;;2.40;;
14342;SDS011;7255;53.596;9.960;2023-05-16T03:59:42;7.15;;;2.00;;
14342;SDS011;7255;53.596;9.960;2023-05-16T04:02:08;7.57;;;2.08;;
14342;SDS011;7255;53.596;9.960;2023-05-16T04:04:35;6.32;;;2.28;;
14342;SDS011;7255;53.596;9.960;2023-05-16T04:07:01;6.60;;;2.20;;
14342;SDS011;7255;53.596;9.960;2023-05-16T04:09:28;7.28;;;2.30;;
14342;SDS011;7255;53.596;9.960;2023-05-16T04:11:54;5.60;;;2.22;;
14342;SDS011;7255;53.596;9.960;2023-05-16T04:14:22;7.05;;;2.05;;
14342;SDS011;7255;53.596;9.960;2023-05-16T04:16:49;9.32;;;2.00;;
14342;SDS011;7255;53.596;9.960;2023-05-16T04:19:15;7.17;;;2.40;;
14342;SDS011;7255;53.596;9.960;2023-05-16T04:21:42;5.87;;;1.83;;
14342;SDS011;7255;53.596;9.960;2023-05-16T04:24:08;6.47;;;2.28;;
14342;SDS011;7255;53.596;9.960;2023-05-16T04:26:34;5.78;;;1.80;;
14342;SDS011;7255;53.596;9.960;2023-05-16T04:29:01;6.25;;;1.92;;
14342;SDS011;7255;53.596;9.960;2023-05-16T04:31:28;6.05;;;1.95;;
14342;SDS011;7255;53.596;9.960;2023-05-16T04:33:55;4.22;;;1.73;;
14342;SDS011;7255;53.596;9.960;2023-05-16T04:36:22;5.30;;;1.60;;
14342;SDS011;7255;53.596;9.960;2023-05-16T04:38:48;4.47;;;2.00;;
14342;SDS011;7255;53.596;9.960;2023-05-16T04:41:15;5.15;;;1.92;;
14342;SDS011;7255;53.596;9.960;2023-05-16T04:43:43;3.83;;;2.03;;
14342;SDS011;7255;53.596;9.960;2023-05-16T04:46:09;6.07;;;1.80;;
14342;SDS011;7255;53.596;9.960;2023-05-16T04:48:37;5.32;;;1.83;;
14342;SDS011;7255;53.596;9.960;2023-05-16T04:51:03;4.45;;;2.05;;
14342;SDS011;7255;53.596;9.960;2023-05-16T04:53:30;7.43;;;2.25;;
14342;SDS011;7255;53.596;9.960;2023-05-16T04:55:56;10.27;;;2.00;;
14342;SDS011;7255;53.596;9.960;2023-05-16T04:58:22;3.87;;;1.60;;
14342;SDS011;7255;53.596;9.960;2023-05-16T05:00:49;7.57;;;2.00;;
14342;SDS011;7255;53.596;9.960;2023-05-16T05:03:16;7.70;;;2.00;;
14342;SDS011;7255;53.596;9.960;2023-05-16T05:05:44;5.80;;;1.92;;
14342;SDS011;7255;53.596;9.960;2023-05-16T05:08:11;3.15;;;1.62;;
14342;SDS011;7255;53.596;9.960;2023-05-16T05:10:38;4.97;;;1.70;;
14342;SDS011;7255;53.596;9.960;2023-05-16T05:13:05;5.62;;;1.80;;
14342;SDS011;7255;53.596;9.960;2023-05-16T05:15:31;4.17;;;1.50;;
14342;SDS011;7255;53.596;9.960;2023-05-16T05:17:59;6.10;;;1.80;;
14342;SDS011;7255;53.596;9.960;2023-05-16T05:20:26;8.00;;;1.90;;
14342;SDS011;7255;53.596;9.960;2023-05-16T05:22:53;4.78;;;1.52;;
14342;SDS011;7255;53.596;9.960;2023-05-16T05:25:20;7.05;;;1.92;;
14342;SDS011;7255;53.596;9.960;2023-05-16T05:27:46;5.07;;;1.70;;
14342;SDS011;7255;53.596;9.960;2023-05-16T05:30:13;7.50;;;2.10;;
14342;SDS011;7255;53.596;9.960;2023-05-16T05:32:39;5.00;;;1.83;;
14342;SDS011;7255;53.596;9.960;2023-05-16T05:35:08;5.12;;;1.55;;
14342;SDS011;7255;53.596;9.960;2023-05-16T05:37:35;9.40;;;1.95;;
14342;SDS011;7255;53.596;9.960;2023-05-16T05:40:03;6.95;;;1.65;;
14342;SDS011;7255;53.596;9.960;2023-05-16T05:42:30;5.68;;;2.15;;
14342;SDS011;7255;53.596;9.960;2023-05-16T05:44:56;5.15;;;1.70;;
14342;SDS011;7255;53.596;9.960;2023-05-16T05:47:23;5.22;;;1.70;;
14342;SDS011;7255;53.596;9.960;2023-05-16T05:49:49;5.03;;;1.80;;
14342;SDS011;7255;53.596;9.960;2023-05-16T05:52:15;3.30;;;1.80;;
14342;SDS011;7255;53.596;9.960;2023-05-16T05:54:42;6.53;;;2.00;;
14342;SDS011;7255;53.596;9.960;2023-05-16T05:57:09;5.82;;;1.90;;
14342;SDS011;7255;53.596;9.960;2023-05-16T05:59:36;4.37;;;1.60;;
14342;SDS011;7255;53.596;9.960;2023-05-16T06:02:02;4.68;;;1.42;;
14342;SDS011;7255;53.596;9.960;2023-05-16T06:04:28;6.55;;;1.40;;
14342;SDS011;7255;53.596;9.960;2023-05-16T06:06:55;4.63;;;1.47;;
14342;SDS011;7255;53.596;9.960;2023-05-16T06:09:21;5.47;;;1.62;;
14342;SDS011;7255;53.596;9.960;2023-05-16T06:11:48;4.62;;;1.52;;
14342;SDS011;7255;53.596;9.960;2023-05-16T06:14:16;3.25;;;1.35;;
14342;SDS011;7255;53.596;9.960;2023-05-16T06:16:43;3.85;;;1.33;;
14342;SDS011;7255;53.596;9.960;2023-05-16T06:19:09;3.67;;;1.30;;
14342;SDS011;7255;53.596;9.960;2023-05-16T06:21:39;4.43;;;1.67;;
14342;SDS011;7255;53.596;9.960;2023-05-16T06:24:06;5.47;;;1.50;;
14342;SDS011;7255;53.596;9.960;2023-05-16T06:26:32;4.87;;;1.63;;
14342;SDS011;7255;53.596;9.960;2023-05-16T06:28:58;3.33;;;1.52;;
14342;SDS011;7255;53.596;9.960;2023-05-16T06:31:26;3.65;;;1.60;;
14342;SDS011;7255;53.596;9.960;2023-05-16T06:33:52;3.67;;;1.60;;
14342;SDS011;7255;53.596;9.960;2023-05-16T06:36:19;4.17;;;1.70;;
14342;SDS011;7255;53.596;9.960;2023-05-16T06:38:45;6.12;;;1.75;;
14342;SDS011;7255;53.596;9.960;2023-05-16T06:41:11;6.68;;;1.55;;
14342;SDS011;7255;53.596;9.960;2023-05-16T06:43:38;4.93;;;1.60;;
14342;SDS011;7255;53.596;9.960;2023-05-16T06:46:05;6.65;;;2.10;;
14342;SDS011;7255;53.596;9.960;2023-05-16T06:48:32;5.47;;;1.80;;
14342;SDS011;7255;53.596;9.960;2023-05-16T06:50:59;2.90;;;1.50;;
14342;SDS011;7255;53.596;9.960;2023-05-16T06:53:25;6.00;;;1.40;;
14342;SDS011;7255;53.596;9.960;2023-05-16T06:55:52;6.95;;;1.80;;
14342;SDS011;7255;53.596;9.960;2023-05-16T06:58:19;5.62;;;2.00;;
14342;SDS011;7255;53.596;9.960;2023-05-16T07:00:45;3.23;;;1.50;;
14342;SDS011;7255;53.596;9.960;2023-05-16T07:03:12;3.50;;;1.40;;
14342;SDS011;7255;53.596;9.960;2023-05-16T07:05:40;4.95;;;1.37;;
14342;SDS011;7255;53.596;9.960;2023-05-16T07:08:07;3.62;;;1.33;;
14342;SDS011;7255;53.596;9.960;2023-05-16T07:10:34;5.05;;;1.70;;
14342;SDS011;7255;53.596;9.960;2023-05-16T07:13:00;4.53;;;1.65;;
14342;SDS011;7255;53.596;9.960;2023-05-16T07:15:27;5.57;;;1.40;;
14342;SDS011;7255;53.596;9.960;2023-05-16T07:17:53;2.00;;;1.30;;
14342;SDS011;7255;53.596;9.960;2023-05-16T07:20:19;3.75;;;1.70;;
14342;SDS011;7255;53.596;9.960;2023-05-16T07:22:47;3.47;;;1.40;;
14342;SDS011;7255;53.596;9.960;2023-05-16T07:25:13;6.05;;;1.30;;
14342;SDS011;7255;53.596;9.960;2023-05-16T07:27:40;3.25;;;1.37;;
14342;SDS011;7255;53.596;9.960;2023-05-16T07:30:09;3.95;;;1.02;;
14342;SDS011;7255;53.596;9.960;2023-05-16T07:32:37;3.83;;;1.40;;
14342;SDS011;7255;53.596;9.960;2023-05-16T07:35:04;5.47;;;1.50;;
14342;SDS011;7255;53.596;9.960;2023-05-16T07:37:30;5.45;;;1.50;;
14342;SDS011;7255;53.596;9.960;2023-05-16T07:39:58;4.62;;;1.35;;
14342;SDS011;7255;53.596;9.960;2023-05-16T07:42:24;5.57;;;1.20;;
14342;SDS011;7255;53.596;9.960;2023-05-16T07:44:51;5.05;;;1.35;;
14342;SDS011;7255;53.596;9.960;2023-05-16T07:47:17;4.10;;;1.07;;
14342;SDS011;7255;53.596;9.960;2023-05-16T07:49:44;4.60;;;1.20;;
14342;SDS011;7255;53.596;9.960;2023-05-16T07:52:10;2.75;;;1.20;;
14342;SDS011;7255;53.596;9.960;2023-05-16T07:54:36;3.35;;;1.30;;
14342;SDS011;7255;53.596;9.960;2023-05-16T07:57:04;5.10;;;1.50;;
14342;SDS011;7255;53.596;9.960;2023-05-16T07:59:31;3.55;;;1.40;;
14342;SDS011;7255;53.596;9.960;2023-05-16T08:01:57;7.50;;;1.50;;
14342;SDS011;7255;53.596;9.960;2023-05-16T08:04:24;3.92;;;1.30;;
14342;SDS011;7255;53.596;9.960;2023-05-16T08:06:50;4.03;;;1.58;;
14342;SDS011;7255;53.596;9.960;2023-05-16T08:09:16;5.57;;;1.40;;
14342;SDS011;7255;53.596;9.960;2023-05-16T08:11:43;5.57;;;1.73;;
14342;SDS011;7255;53.596;9.960;2023-05-16T08:14:11;3.58;;;1.30;;
14342;SDS011;7255;53.596;9.960;2023-05-16T08:16:38;3.47;;;1.40;;
14342;SDS011;7255;53.596;9.960;2023-05-16T08:19:04;4.10;;;1.30;;
14342;SDS011;7255;53.596;9.960;2023-05-16T08:21:31;5.67;;;1.20;;
14342;SDS011;7255;53.596;9.960;2023-05-16T08:23:57;4.15;;;1.50;;
14342;SDS011;7255;53.596;9.960;2023-05-16T08:26:23;4.62;;;1.30;;
14342;SDS011;7255;53.596;9.960;2023-05-16T08:28:50;2.92;;;1.05;;
14342;SDS011;7255;53.596;9.960;2023-05-16T08:31:18;5.22;;;1.70;;
14342;SDS011;7255;53.596;9.960;2023-05-16T08:33:45;5.60;;;1.20;;
14342;SDS011;7255;53.596;9.960;2023-05-16T08:36:11;5.47;;;1.53;;
14342;SDS011;7255;53.596;9.960;2023-05-16T08:38:39;3.10;;;1.48;;
14342;SDS011;7255;53.596;9.960;2023-05-16T08:41:06;5.95;;;1.48;;
14342;SDS011;7255;53.596;9.960;2023-05-16T08:43:32;5.35;;;1.50;;
14342;SDS011;7255;53.596;9.960;2023-05-16T08:46:00;5.68;;;1.77;;
14342;SDS011;7255;53.596;9.960;2023-05-16T08:48:28;2.80;;;1.40;;
14342;SDS011;7255;53.596;9.960;2023-05-16T08:50:58;2.10;;;1.20;;
14342;SDS011;7255;53.596;9.960;2023-05-16T08:53:25;3.97;;;1.23;;
14342;SDS011;7255;53.596;9.960;2023-05-16T08:55:57;2.28;;;1.27;;
14342;SDS011;7255;53.596;9.960;2023-05-16T08:58:25;4.37;;;1.37;;
14342;SDS011;7255;53.596;9.960;2023-05-16T09:00:53;3.40;;;1.35;;
14342;SDS011;7255;53.596;9.960;2023-05-16T09:03:21;2.87;;;1.17;;
14342;SDS011;7255;53.596;9.960;2023-05-16T09:05:50;2.33;;;1.08;;
14342;SDS011;7255;53.596;9.960;2023-05-16T09:08:16;3.85;;;1.17;;
14342;SDS011;7255;53.596;9.960;2023-05-16T09:10:44;2.08;;;1.20;;
14342;SDS011;7255;53.596;9.960;2023-05-16T09:13:10;3.47;;;1.30;;
14342;SDS011;7255;53.596;9.960;2023-05-16T09:15:37;6.22;;;1.30;;
14342;SDS011;7255;53.596;9.960;2023-05-16T09:18:03;5.32;;;1.80;;
14342;SDS011;7255;53.596;9.960;2023-05-16T09:20:29;3.78;;;1.58;;
14342;SDS011;7255;53.596;9.960;2023-05-16T09:22:58;3.45;;;1.37;;
14342;SDS011;7255;53.596;9.960;2023-05-16T09:25:25;3.83;;;1.40;;
14342;SDS011;7255;53.596;9.960;2023-05-16T09:27:52;4.27;;;1.40;;
14342;SDS011;7255;53.596;9.960;2023-05-16T09:30:20;2.65;;;1.40;;
14342;SDS011;7255;53.596;9.960;2023-05-16T09:32:47;3.00;;;1.30;;
14342;SDS011;7255;53.596;9.960;2023-05-16T09:35:16;6.10;;;1.57;;
14342;SDS011;7255;53.596;9.960;2023-05-16T09:37:44;3.90;;;1.30;;
14342;SDS011;7255;53.596;9.960;2023-05-16T09:40:13;2.57;;;1.10;;
14342;SDS011;7255;53.596;9.960;2023-05-16T09:42:40;3.87;;;1.30;;
14342;SDS011;7255;53.596;9.960;2023-05-16T09:45:10;3.25;;;1.37;;
14342;SDS011;7255;53.596;9.960;2023-05-16T09:47:37;2.53;;;1.07;;
14342;SDS011;7255;53.596;9.960;2023-05-16T09:50:10;4.00;;;1.20;;
14342;SDS011;7255;53.596;9.960;2023-05-16T09:52:36;1.92;;;1.10;;
14342;SDS011;7255;53.596;9.960;2023-05-16T09:55:05;4.62;;;1.17;;
14342;SDS011;7255;53.596;9.960;2023-05-16T09:57:33;4.22;;;1.30;;
14342;SDS011;7255;53.596;9.960;2023-05-16T10:00:04;4.72;;;1.33;;
14342;SDS011;7255;53.596;9.960;2023-05-16T10:02:35;3.53;;;1.37;;
14342;SDS011;7255;53.596;9.960;2023-05-16T10:05:03;3.15;;;1.55;;
14342;SDS011;7255;53.596;9.960;2023-05-16T10:07:29;5.10;;;1.40;;
14342;SDS011;7255;53.596;9.960;2023-05-16T10:09:57;3.70;;;1.35;;
14342;SDS011;7255;53.596;9.960;2023-05-16T10:12:28;3.58;;;1.58;;
14342;SDS011;7255;53.596;9.960;2023-05-16T10:14:57;5.57;;;1.55;;
14342;SDS011;7255;53.596;9.960;2023-05-16T10:17:26;4.28;;;1.25;;
14342;SDS011;7255;53.596;9.960;2023-05-16T10:19:56;4.97;;;1.60;;
14342;SDS011;7255;53.596;9.960;2023-05-16T10:22:23;4.60;;;1.60;;
14342;SDS011;7255;53.596;9.960;2023-05-16T10:24:52;5.10;;;1.58;;
14342;SDS011;7255;53.596;9.960;2023-05-16T10:27:25;5.15;;;1.90;;
14342;SDS011;7255;53.596;9.960;2023-05-16T10:29:52;3.70;;;1.80;;
14342;SDS011;7255;53.596;9.960;2023-05-16T10:32:22;4.73;;;1.47;;
14342;SDS011;7255;53.596;9.960;2023-05-16T10:34:49;3.60;;;1.50;;
14342;SDS011;7255;53.596;9.960;2023-05-16T10:37:16;4.47;;;1.60;;
14342;SDS011;7255;53.596;9.960;2023-05-16T10:39:42;3.40;;;1.60;;
14342;SDS011;7255;53.596;9.960;2023-05-16T10:42:09;4.35;;;1.40;;
14342;SDS011;7255;53.596;9.960;2023-05-16T10:44:38;4.20;;;1.30;;
14342;SDS011;7255;53.596;9.960;2023-05-16T10:47:04;3.85;;;1.85;;
14342;SDS011;7255;53.596;9.960;2023-05-16T10:49:32;2.08;;;1.17;;
14342;SDS011;7255;53.596;9.960;2023-05-16T10:52:03;4.05;;;1.40;;
14342;SDS011;7255;53.596;9.960;2023-05-16T10:54:34;3.30;;;1.30;;
14342;SDS011;7255;53.596;9.960;2023-05-16T10:57:05;2.70;;;1.20;;
14342;SDS011;7255;53.596;9.960;2023-05-16T10:59:38;5.57;;;1.40;;
14342;SDS011;7255;53.596;9.960;2023-05-16T11:02:19;4.47;;;1.55;;
14342;SDS011;7255;53.596;9.960;2023-05-16T11:04:49;5.32;;;1.70;;
14342;SDS011;7255;53.596;9.960;2023-05-16T11:07:16;4.43;;;1.40;;
14342;SDS011;7255;53.596;9.960;2023-05-16T11:09:44;2.37;;;1.12;;
14342;SDS011;7255;53.596;9.960;2023-05-16T11:12:11;3.05;;;1.30;;
14342;SDS011;7255;53.596;9.960;2023-05-16T11:14:38;3.35;;;1.10;;
14342;SDS011;7255;53.596;9.960;2023-05-16T11:17:09;3.25;;;1.30;;
14342;SDS011;7255;53.596;9.960;2023-05-16T11:19:38;1.65;;;1.00;;
14342;SDS011;7255;53.596;9.960;2023-05-16T11:22:09;2.03;;;1.10;;
14342;SDS011;7255;53.596;9.960;2023-05-16T11:24:47;2.12;;;1.02;;
14342;SDS011;7255;53.596;9.960;2023-05-16T11:27:18;4.22;;;1.55;;
14342;SDS011;7255;53.596;9.960;2023-05-16T11:29:47;2.75;;;1.17;;
14342;SDS011;7255;53.596;9.960;2023-05-16T11:32:14;2.17;;;1.00;;
14342;SDS011;7255;53.596;9.960;2023-05-16T11:34:45;3.73;;;1.57;;
14342;SDS011;7255;53.596;9.960;2023-05-16T11:37:13;2.25;;;1.20;;
14342;SDS011;7255;53.596;9.960;2023-05-16T11:39:40;3.12;;;1.30;;
14342;SDS011;7255;53.596;9.960;2023-05-16T11:42:07;2.35;;;1.15;;
14342;SDS011;7255;53.596;9.960;2023-05-16T11:44:33;3.47;;;1.10;;
14342;SDS011;7255;53.596;9.960;2023-05-16T11:47:00;2.50;;;1.10;;
14342;SDS011;7255;53.596;9.960;2023-05-16T11:49:26;1.50;;;1.10;;
14342;SDS011;7255;53.596;9.960;2023-05-16T11:51:53;4.30;;;0.95;;
14342;SDS011;7255;53.596;9.960;2023-05-16T11:54:22;2.22;;;0.82;;
14342;SDS011;7255;53.596;9.960;2023-05-16T11:56:49;2.63;;;1.30;;
14342;SDS011;7255;53.596;9.960;2023-05-16T11:59:16;3.03;;;1.10;;
14342;SDS011;7255;53.596;9.960;2023-05-16T12:01:43;2.78;;;1.00;;
14342;SDS011;7255;53.596;9.960;2023-05-16T12:04:12;3.28;;;1.10;;
14342;SDS011;7255;53.596;9.960;2023-05-16T12:06:40;4.30;;;1.25;;
14342;SDS011;7255;53.596;9.960;2023-05-16T12:09:10;3.05;;;1.17;;
14342;SDS011;7255;53.596;9.960;2023-05-16T12:11:39;4.35;;;1.10;;
14342;SDS011;7255;53.596;9.960;2023-05-16T12:14:07;3.20;;;1.20;;
14342;SDS011;7255;53.596;9.960;2023-05-16T12:16:34;2.17;;;1.17;;
14342;SDS011;7255;53.596;9.960;2023-05-16T12:19:02;2.78;;;1.20;;
14342;SDS011;7255;53.596;9.960;2023-05-16T12:21:30;2.13;;;1.10;;
14342;SDS011;7255;53.596;9.960;2023-05-16T12:23:56;2.05;;;1.27;;
14342;SDS011;7255;53.596;9.960;2023-05-16T12:26:24;3.58;;;1.10;;
14342;SDS011;7255;53.596;9.960;2023-05-16T12:28:53;4.37;;;1.27;;
14342;SDS011;7255;53.596;9.960;2023-05-16T12:31:21;2.95;;;1.05;;
14342;SDS011;7255;53.596;9.960;2023-05-16T12:33:51;1.58;;;0.90;;
14342;SDS011;7255;53.596;9.960;2023-05-16T12:36:18;1.62;;;1.05;;
14342;SDS011;7255;53.596;9.960;2023-05-16T12:38:44;0.88;;;0.70;;
14342;SDS011;7255;53.596;9.960;2023-05-16T12:41:11;2.12;;;0.82;;
14342;SDS011;7255;53.596;9.960;2023-05-16T12:43:42;2.47;;;1.40;;
14342;SDS011;7255;53.596;9.960;2023-05-16T12:46:10;2.20;;;0.90;;
14342;SDS011;7255;53.596;9.960;2023-05-16T12:48:37;5.18;;;1.58;;
14342;SDS011;7255;53.596;9.960;2023-05-16T12:51:09;4.90;;;1.62;;
14342;SDS011;7255;53.596;9.960;2023-05-16T12:53:40;2.87;;;1.77;;
14342;SDS011;7255;53.596;9.960;2023-05-16T12:56:08;7.57;;;1.58;;
14342;SDS011;7255;53.596;9.960;2023-05-16T12:58:34;5.00;;;1.35;;
14342;SDS011;7255;53.596;9.960;2023-05-16T13:01:01;2.92;;;1.20;;
14342;SDS011;7255;53.596;9.960;2023-05-16T13:03:29;4.45;;;1.60;;
14342;SDS011;7255;53.596;9.960;2023-05-16T13:05:55;3.45;;;1.23;;
14342;SDS011;7255;53.596;9.960;2023-05-16T13:08:21;6.35;;;1.85;;
14342;SDS011;7255;53.596;9.960;2023-05-16T13:10:48;2.45;;;1.33;;
14342;SDS011;7255;53.596;9.960;2023-05-16T13:13:15;3.15;;;1.20;;
14342;SDS011;7255;53.596;9.960;2023-05-16T13:15:42;4.47;;;1.20;;
14342;SDS011;7255;53.596;9.960;2023-05-16T13:18:09;1.37;;;0.95;;
14342;SDS011;7255;53.596;9.960;2023-05-16T13:20:37;1.85;;;1.00;;
14342;SDS011;7255;53.596;9.960;2023-05-16T13:23:04;2.40;;;1.15;;
14342;SDS011;7255;53.596;9.960;2023-05-16T13:25:30;2.67;;;1.10;;
14342;SDS011;7255;53.596;9.960;2023-05-16T13:27:56;3.65;;;1.20;;
14342;SDS011;7255;53.596;9.960;2023-05-16T13:30:23;1.65;;;1.15;;
14342;SDS011;7255;53.596;9.960;2023-05-16T13:32:49;3.00;;;0.93;;
14342;SDS011;7255;53.596;9.960;2023-05-16T13:35:16;5.87;;;1.00;;
14342;SDS011;7255;53.596;9.960;2023-05-16T13:37:44;1.52;;;1.08;;
14342;SDS011;7255;53.596;9.960;2023-05-16T13:40:10;4.70;;;1.25;;
14342;SDS011;7255;53.596;9.960;2023-05-16T13:42:36;1.12;;;1.00;;
14342;SDS011;7255;53.596;9.960;2023-05-16T13:45:03;3.58;;;1.40;;
14342;SDS011;7255;53.596;9.960;2023-05-16T13:47:30;2.35;;;1.10;;
14342;SDS011;7255;53.596;9.960;2023-05-16T13:49:57;3.45;;;1.10;;
14342;SDS011;7255;53.596;9.960;2023-05-16T13:52:27;1.55;;;0.90;;
14342;SDS011;7255;53.596;9.960;2023-05-16T13:54:54;1.58;;;1.00;;
14342;SDS011;7255;53.596;9.960;2023-05-16T13:57:21;0.95;;;0.80;;
14342;SDS011;7255;53.596;9.960;2023-05-16T13:59:47;1.55;;;1.10;;
14342;SDS011;7255;53.596;9.960;2023-05-16T14:02:14;1.83;;;1.00;;
14342;SDS011;7255;53.596;9.960;2023-05-16T14:04:40;3.05;;;1.08;;
14342;SDS011;7255;53.596;9.960;2023-05-16T14:07:07;1.60;;;0.98;;
14342;SDS011;7255;53.596;9.960;2023-05-16T14:09:33;1.10;;;1.00;;
14342;SDS011;7255;53.596;9.960;2023-05-16T14:12:04;1.10;;;0.90;;
14342;SDS011;7255;53.596;9.960;2023-05-16T14:14:32;3.30;;;1.27;;
14342;SDS011;7255;53.596;9.960;2023-05-16T14:16:58;1.50;;;0.90;;
14342;SDS011;7255;53.596;9.960;2023-05-16T14:19:25;1.70;;;1.30;;
14342;SDS011;7255;53.596;9.960;2023-05-16T14:21:51;1.33;;;0.95;;
14342;SDS011;7255;53.596;9.960;2023-05-16T14:24:17;1.62;;;1.23;;
14342;SDS011;7255;53.596;9.960;2023-05-16T14:26:44;1.05;;;0.90;;
14342;SDS011;7255;53.596;9.960;2023-05-16T14:29:11;0.77;;;0.77;;
14342;SDS011;7255;53.596;9.960;2023-05-16T14:31:38;3.08;;;1.20;;
14342;SDS011;7255;53.596;9.960;2023-05-16T14:34:04;2.62;;;1.00;;
14342;SDS011;7255;53.596;9.960;2023-05-16T14:36:31;2.85;;;1.33;;
14342;SDS011;7255;53.596;9.960;2023-05-16T14:38:57;4.03;;;1.40;;
14342;SDS011;7255;53.596;9.960;2023-05-16T14:41:24;1.27;;;0.73;;
14342;SDS011;7255;53.596;9.960;2023-05-16T14:43:50;1.05;;;0.95;;
14342;SDS011;7255;53.596;9.960;2023-05-16T14:46:18;2.55;;;0.95;;
14342;SDS011;7255;53.596;9.960;2023-05-16T14:48:44;3.00;;;1.33;;
14342;SDS011;7255;53.596;9.960;2023-05-16T14:51:11;1.70;;;1.02;;
14342;SDS011;7255;53.596;9.960;2023-05-16T14:53:37;2.15;;;0.90;;
14342;SDS011;7255;53.596;9.960;2023-05-16T14:56:03;1.67;;;0.90;;
14342;SDS011;7255;53.596;9.960;2023-05-16T14:58:30;1.08;;;0.80;;
14342;SDS011;7255;53.596;9.960;2023-05-16T15:00:56;1.67;;;1.08;;